createdAt,value
2022-10-14T00:00:54.461Z,21.83
2022-10-14T00:03:39.219Z,16.95
2022-10-14T00:06:22.580Z,18.92
2022-10-14T00:09:06.877Z,18.30
2022-10-14T00:11:49.633Z,19.23
2022-10-14T00:14:32.413Z,20.38
2022-10-14T00:17:16.152Z,22.55
2022-10-14T00:20:01.554Z,20.50
2022-10-14T00:22:44.462Z,19.90
2022-10-14T00:25:28.111Z,17.13
2022-10-14T00:28:10.958Z,16.65
2022-10-14T00:30:54.478Z,19.58
2022-10-14T00:33:37.147Z,21.20
2022-10-14T00:36:22.242Z,20.10
2022-10-14T00:39:05.051Z,19.80
2022-10-14T00:41:49.305Z,17.30
2022-10-14T00:44:50.923Z,19.38
2022-10-14T00:47:33.680Z,19.90
2022-10-14T00:50:17.456Z,20.52
2022-10-14T00:53:01.669Z,22.10
2022-10-14T00:55:44.701Z,17.80
2022-10-14T00:58:27.614Z,20.48
2022-10-14T01:01:10.408Z,20.80
2022-10-14T01:03:53.172Z,19.80
2022-10-14T01:06:41.644Z,18.95
2022-10-14T01:09:29.994Z,22.02
2022-10-14T01:12:28.614Z,18.42
2022-10-14T01:15:17.435Z,21.98
2022-10-14T01:18:05.533Z,19.63
2022-10-14T01:20:56.804Z,25.70
2022-10-14T01:23:48.064Z,24.27
2022-10-14T01:26:44.029Z,24.27
2022-10-14T01:29:44.861Z,24.52
2022-10-14T01:32:28.987Z,25.10
2022-10-14T01:35:14.947Z,25.80
2022-10-14T01:37:59.669Z,23.08
2022-10-14T01:40:47.715Z,22.02
2022-10-14T01:43:33.152Z,24.33
2022-10-14T01:46:17.956Z,26.52
2022-10-14T01:49:03.117Z,25.08
2022-10-14T01:51:49.047Z,23.35
2022-10-14T01:54:33.907Z,26.52
2022-10-14T01:57:18.522Z,23.90
2022-10-14T02:00:02.173Z,22.13
2022-10-14T02:02:58.288Z,24.83
2022-10-14T02:05:44.090Z,28.05
2022-10-14T02:08:35.018Z,24.15
2022-10-14T02:11:19.752Z,24.38
2022-10-14T02:14:07.273Z,23.63
2022-10-14T02:16:51.209Z,26.70
2022-10-14T02:19:38.367Z,25.67
2022-10-14T02:22:25.978Z,22.73
2022-10-14T02:25:12.512Z,21.13
2022-10-14T02:27:55.595Z,22.88
2022-10-14T02:30:40.152Z,20.17
2022-10-14T02:33:24.721Z,20.70
2022-10-14T02:36:09.993Z,19.48
2022-10-14T02:38:53.873Z,23.05
2022-10-14T02:41:37.460Z,22.35
2022-10-14T02:44:20.290Z,21.50
2022-10-14T02:47:03.095Z,21.95
2022-10-14T02:49:46.739Z,23.80
2022-10-14T02:52:30.930Z,27.65
2022-10-14T02:55:13.956Z,22.40
2022-10-14T02:57:56.656Z,21.17
2022-10-14T03:00:42.192Z,20.33
2022-10-14T03:03:25.441Z,26.52
2022-10-14T03:06:08.273Z,23.23
2022-10-14T03:08:55.305Z,22.63
2022-10-14T03:11:41.274Z,21.52
2022-10-14T03:14:29.613Z,24.58
2022-10-14T03:17:13.148Z,21.60
2022-10-14T03:19:56.203Z,21.73
2022-10-14T03:22:42.057Z,25.13
2022-10-14T03:25:26.333Z,20.35
2022-10-14T03:28:17.805Z,25.35
2022-10-14T03:31:20.851Z,24.65
2022-10-14T03:34:29.753Z,23.13
2022-10-14T03:37:22.143Z,24.23
2022-10-14T03:40:07.414Z,22.50
2022-10-14T03:42:52.564Z,25.08
2022-10-14T03:45:36.739Z,23.08
2022-10-14T03:48:20.368Z,24.02
2022-10-14T03:51:03.246Z,21.92
2022-10-14T03:53:46.311Z,26.27
2022-10-14T03:56:33.789Z,24.30
2022-10-14T03:59:18.168Z,23.17
2022-10-14T04:02:05.259Z,22.90
2022-10-14T04:04:47.993Z,25.08
2022-10-14T04:07:33.392Z,24.98
2022-10-14T04:10:16.693Z,21.73
2022-10-14T04:13:05.066Z,22.88
2022-10-14T04:15:54.016Z,22.23
2022-10-14T04:18:44.114Z,23.13
2022-10-14T04:21:29.672Z,26.08
2022-10-14T04:24:13.798Z,23.20
2022-10-14T04:27:07.621Z,20.67
2022-10-14T04:30:03.256Z,21.38
2022-10-14T04:32:57.210Z,23.00
2022-10-14T04:35:40.025Z,21.13
2022-10-14T04:38:26.668Z,23.27
2022-10-14T04:41:14.316Z,25.02
2022-10-14T04:44:02.508Z,22.88
2022-10-14T04:46:50.577Z,22.83
2022-10-14T04:49:37.672Z,23.58
2022-10-14T04:52:31.750Z,22.13
2022-10-14T04:55:25.228Z,22.17
2022-10-14T04:58:08.075Z,22.70
2022-10-14T05:00:56.788Z,24.67
2022-10-14T05:03:44.757Z,26.60
2022-10-14T05:06:29.488Z,27.83
2022-10-14T05:09:12.407Z,26.42
2022-10-14T05:11:55.403Z,27.75
2022-10-14T05:14:46.640Z,27.73
2022-10-14T05:17:37.670Z,26.35
2022-10-14T05:20:20.828Z,28.30
2022-10-14T05:23:08.907Z,24.98
2022-10-14T05:25:51.923Z,24.52
2022-10-14T05:28:35.635Z,21.85
2022-10-14T05:31:19.621Z,25.98
2022-10-14T05:34:12.198Z,20.52
2022-10-14T05:36:54.944Z,25.23
2022-10-14T05:39:39.522Z,25.00
2022-10-14T05:42:22.541Z,22.38
2022-10-14T05:45:09.340Z,24.30
2022-10-14T05:47:55.828Z,22.70
2022-10-14T05:50:38.522Z,27.63
2022-10-14T05:53:26.663Z,24.33
2022-10-14T05:56:12.779Z,28.52
2022-10-14T05:58:56.395Z,21.92
2022-10-14T06:01:39.255Z,22.75
2022-10-14T06:04:22.329Z,23.63
2022-10-14T06:07:05.145Z,24.80
2022-10-14T06:09:48.065Z,25.05
2022-10-14T06:12:32.728Z,24.48
2022-10-14T06:15:15.641Z,20.85
2022-10-14T06:17:58.439Z,22.15
2022-10-14T06:20:42.275Z,20.23
2022-10-14T06:23:24.977Z,21.45
2022-10-14T06:26:09.732Z,20.88
2022-10-14T06:28:54.026Z,19.10
2022-10-14T06:31:36.854Z,21.23
2022-10-14T06:34:22.840Z,21.35
2022-10-14T06:37:05.540Z,20.27
2022-10-14T06:39:48.277Z,21.70
2022-10-14T06:42:31.032Z,23.48
2022-10-14T06:45:16.601Z,23.65
2022-10-14T06:47:59.385Z,30.67
2022-10-14T06:50:42.491Z,28.63
2022-10-14T06:53:25.164Z,30.27
2022-10-14T06:56:09.406Z,27.67
2022-10-14T06:58:55.764Z,26.95
2022-10-14T07:01:40.213Z,27.80
2022-10-14T07:04:22.980Z,26.67
2022-10-14T07:07:05.747Z,27.50
2022-10-14T07:09:49.014Z,30.35
2022-10-14T07:12:31.934Z,30.77
2022-10-14T07:15:14.855Z,30.02
2022-10-14T07:17:59.115Z,29.85
2022-10-14T07:20:41.880Z,27.77
2022-10-14T07:23:24.789Z,29.58
2022-10-14T07:26:07.567Z,31.00
2022-10-14T07:28:50.491Z,29.75
2022-10-14T07:31:33.911Z,28.13
2022-10-14T07:34:18.084Z,31.35
2022-10-14T07:37:00.876Z,28.88
2022-10-14T07:39:43.685Z,27.55
2022-10-14T07:42:26.507Z,27.05
2022-10-14T07:45:09.836Z,26.35
2022-10-14T07:47:52.667Z,28.08
2022-10-14T07:50:37.114Z,28.90
2022-10-14T07:53:20.228Z,25.92
2022-10-14T07:56:02.999Z,28.70
2022-10-14T07:58:46.466Z,28.60
2022-10-14T08:01:29.265Z,34.03
2022-10-14T08:04:12.683Z,30.63
2022-10-14T08:06:56.881Z,31.27
2022-10-14T08:09:39.809Z,33.17
2022-10-14T08:12:23.103Z,33.10
2022-10-14T08:15:06.368Z,34.13
2022-10-14T08:17:49.099Z,33.88
2022-10-14T08:20:32.340Z,36.55
2022-10-14T08:23:19.078Z,35.40
2022-10-14T08:26:02.927Z,31.75
2022-10-14T08:28:45.767Z,30.73
2022-10-14T08:31:28.666Z,37.40
2022-10-14T08:34:11.595Z,34.97
2022-10-14T08:36:54.391Z,32.28
2022-10-14T08:39:38.491Z,31.60
2022-10-14T08:42:31.425Z,36.08
2022-10-14T08:45:18.109Z,34.47
2022-10-14T08:48:03.953Z,34.97
2022-10-14T08:50:48.912Z,31.73
2022-10-14T08:53:34.591Z,32.15
2022-10-14T08:56:18.793Z,33.70
2022-10-14T08:59:03.754Z,32.58
2022-10-14T09:01:50.561Z,33.78
2022-10-14T09:04:36.522Z,35.17
2022-10-14T09:07:20.976Z,33.97
2022-10-14T09:10:05.592Z,34.70
2022-10-14T09:12:49.768Z,31.27
2022-10-14T09:15:35.698Z,32.55
2022-10-14T09:18:22.525Z,34.67
2022-10-14T09:21:27.696Z,30.30
2022-10-14T09:24:20.476Z,30.05
2022-10-14T09:27:05.275Z,27.90
2022-10-14T09:29:51.730Z,31.20
2022-10-14T09:32:37.376Z,30.00
2022-10-14T09:35:23.476Z,27.65
2022-10-14T09:38:07.293Z,28.23
2022-10-14T09:40:52.004Z,27.80
2022-10-14T09:43:34.803Z,28.40
2022-10-14T09:46:19.864Z,30.30
2022-10-14T09:49:03.361Z,30.27
2022-10-14T09:51:46.383Z,29.83
2022-10-14T09:54:31.160Z,26.77
2022-10-14T09:57:18.438Z,28.15
2022-10-14T10:00:03.567Z,27.23
2022-10-14T10:02:51.920Z,23.45
2022-10-14T10:05:35.048Z,23.80
2022-10-14T10:08:19.003Z,25.58
2022-10-14T10:11:06.487Z,25.38
2022-10-14T10:13:50.104Z,24.08
2022-10-14T10:16:34.814Z,27.13
2022-10-14T10:19:27.051Z,23.92
2022-10-14T10:25:15.808Z,28.80
2022-10-14T10:27:59.660Z,24.67
2022-10-14T10:30:49.670Z,25.13
2022-10-14T10:33:38.460Z,24.05
2022-10-14T10:36:29.087Z,23.80
2022-10-14T10:39:16.101Z,26.90
2022-10-14T10:42:04.160Z,24.27
2022-10-14T10:44:58.031Z,24.83
2022-10-14T10:47:45.570Z,23.92
2022-10-14T10:50:31.297Z,21.23
2022-10-14T10:53:23.948Z,23.70
2022-10-14T10:56:12.338Z,22.23
2022-10-14T10:59:01.610Z,19.73
2022-10-14T11:01:51.280Z,24.35
2022-10-14T11:04:34.456Z,23.50
2022-10-14T11:07:39.127Z,20.67
2022-10-14T11:10:43.267Z,22.23
2022-10-14T11:13:33.068Z,21.13
2022-10-14T11:16:19.481Z,21.13
2022-10-14T11:19:10.963Z,21.35
2022-10-14T11:22:04.568Z,18.73
2022-10-14T11:24:58.670Z,22.70
2022-10-14T11:27:45.132Z,18.02
2022-10-14T11:30:34.189Z,19.50
2022-10-14T11:33:24.496Z,22.13
2022-10-14T11:36:13.691Z,22.67
2022-10-14T11:39:04.054Z,20.58
2022-10-14T11:41:54.792Z,24.50
2022-10-14T11:44:41.689Z,18.23
2022-10-14T11:47:26.599Z,22.52
2022-10-14T11:50:17.751Z,18.30
2022-10-14T11:53:03.474Z,21.42
2022-10-14T11:55:49.743Z,22.65
2022-10-14T11:58:40.341Z,22.25
2022-10-14T12:01:34.213Z,19.85
2022-10-14T12:04:24.829Z,20.80
2022-10-14T12:07:11.114Z,19.45
2022-10-14T12:10:00.084Z,19.17
2022-10-14T12:12:43.718Z,19.77
2022-10-14T12:15:27.913Z,21.88
2022-10-14T12:18:12.892Z,17.52
2022-10-14T12:20:58.718Z,20.42
2022-10-14T12:23:44.804Z,18.90
2022-10-14T12:26:35.340Z,19.02
2022-10-14T12:29:20.060Z,19.88
2022-10-14T12:32:19.679Z,18.80
2022-10-14T12:35:04.150Z,18.98
2022-10-14T12:37:51.241Z,18.75
2022-10-14T12:40:36.582Z,18.08
2022-10-14T12:43:21.794Z,17.30
2022-10-14T12:46:11.376Z,17.77
2022-10-14T12:48:54.824Z,15.38
2022-10-14T12:51:38.875Z,15.68
2022-10-14T12:54:21.796Z,18.67
2022-10-14T12:57:06.644Z,15.85
2022-10-14T12:59:52.448Z,15.88
2022-10-14T13:02:36.884Z,12.02
2022-10-14T13:05:25.113Z,14.25
2022-10-14T13:08:14.690Z,15.20
2022-10-14T13:11:10.611Z,16.52
2022-10-14T13:14:01.005Z,17.23
2022-10-14T13:16:59.848Z,16.83
2022-10-14T13:19:44.623Z,12.38
2022-10-14T13:22:39.175Z,13.88
2022-10-14T13:25:28.172Z,11.00
2022-10-14T13:28:16.709Z,15.73
2022-10-14T13:31:02.597Z,12.98
2022-10-14T13:33:48.793Z,13.85
2022-10-14T13:36:36.665Z,12.88
2022-10-14T13:39:19.444Z,9.80
2022-10-14T13:42:03.954Z,11.50
2022-10-14T13:47:30.726Z,11.68
2022-10-14T13:50:14.033Z,10.52
2022-10-14T13:52:58.254Z,9.52
2022-10-14T13:55:44.654Z,11.15
2022-10-14T13:58:28.777Z,14.00
2022-10-14T14:01:13.109Z,8.30
2022-10-14T14:03:57.324Z,7.68
2022-10-14T14:07:03.166Z,10.60
2022-10-14T14:09:49.922Z,11.00
2022-10-14T14:12:32.795Z,7.60
2022-10-14T14:15:22.221Z,7.63
2022-10-14T14:18:05.103Z,5.90
2022-10-14T14:20:57.452Z,7.72
2022-10-14T14:23:49.575Z,11.00
2022-10-14T14:26:34.861Z,8.27
2022-10-14T14:29:19.103Z,8.38
2022-10-14T14:32:07.242Z,8.48
2022-10-14T14:37:55.218Z,6.32
2022-10-14T14:40:38.678Z,7.38
2022-10-14T14:43:21.802Z,8.90
2022-10-14T14:46:04.919Z,9.25
2022-10-14T14:48:54.345Z,8.52
2022-10-14T14:51:38.199Z,10.00
2022-10-14T14:54:21.721Z,8.27
2022-10-14T14:57:06.351Z,8.75
2022-10-14T14:59:52.449Z,7.25
2022-10-14T15:02:36.021Z,6.97
2022-10-14T15:05:20.999Z,6.93
2022-10-14T15:08:04.017Z,9.60
2022-10-14T15:10:48.446Z,6.97
2022-10-14T15:13:32.593Z,6.47
2022-10-14T15:16:15.360Z,4.75
2022-10-14T15:19:13.083Z,6.78
2022-10-14T15:22:29.642Z,7.75
2022-10-14T15:25:23.970Z,7.57
2022-10-14T15:28:06.781Z,15.15
2022-10-14T15:30:51.884Z,10.75
2022-10-14T15:33:36.118Z,8.82
2022-10-14T15:36:18.878Z,8.88
2022-10-14T15:39:02.497Z,7.65
2022-10-14T15:41:47.276Z,10.15
2022-10-14T15:44:29.950Z,10.88
2022-10-14T15:47:26.053Z,11.85
2022-10-14T15:50:13.606Z,9.88
2022-10-14T15:52:56.908Z,11.13
2022-10-14T15:55:40.176Z,12.27
2022-10-14T15:58:24.231Z,11.43
2022-10-14T16:01:07.518Z,10.82
2022-10-14T16:03:52.333Z,11.40
2022-10-14T16:06:35.094Z,12.43
2022-10-14T16:09:17.972Z,8.80
2022-10-14T16:12:00.615Z,9.68
2022-10-14T16:14:45.273Z,11.25
2022-10-14T16:17:27.957Z,12.07
2022-10-14T16:20:12.027Z,12.00
2022-10-14T16:22:54.729Z,12.95
2022-10-14T16:25:39.200Z,11.10
2022-10-14T16:28:22.584Z,12.05
2022-10-14T16:31:06.945Z,12.63
2022-10-14T16:33:50.669Z,9.60
2022-10-14T16:36:38.281Z,10.65
2022-10-14T16:39:21.264Z,10.68
2022-10-14T16:42:04.051Z,11.60
2022-10-14T16:44:47.020Z,9.75
2022-10-14T16:47:31.395Z,9.23
2022-10-14T16:50:14.785Z,8.85
2022-10-14T16:53:15.164Z,9.73
2022-10-14T16:55:58.236Z,7.25
2022-10-14T16:58:41.059Z,8.45
2022-10-14T17:01:23.805Z,8.57
2022-10-14T17:04:08.023Z,9.13
2022-10-14T17:06:50.880Z,7.70
2022-10-14T17:09:36.057Z,8.75
2022-10-14T17:12:18.890Z,8.57
2022-10-14T17:15:01.683Z,10.15
2022-10-14T17:17:44.369Z,8.90
2022-10-14T17:20:28.712Z,11.23
2022-10-14T17:23:11.433Z,11.20
2022-10-14T17:25:55.561Z,9.85
2022-10-14T17:28:38.524Z,11.25
2022-10-14T17:31:22.643Z,9.15
2022-10-14T17:34:05.681Z,7.75
2022-10-14T17:36:50.125Z,6.97
2022-10-14T17:39:32.755Z,7.13
2022-10-14T17:42:15.459Z,8.27
2022-10-14T17:44:58.943Z,8.15
2022-10-14T17:47:43.631Z,9.00
2022-10-14T17:50:27.154Z,8.15
2022-10-14T17:53:12.687Z,8.80
2022-10-14T17:55:57.751Z,6.47
2022-10-14T17:58:41.079Z,8.77
2022-10-14T18:01:37.040Z,8.73
2022-10-14T18:04:26.636Z,8.70
2022-10-14T18:07:09.453Z,7.07
2022-10-14T18:09:53.804Z,7.07
2022-10-14T18:12:36.728Z,6.53
2022-10-14T18:15:19.551Z,7.43
2022-10-14T18:18:02.300Z,6.38
2022-10-14T18:20:45.115Z,8.75
2022-10-14T18:23:27.915Z,7.65
2022-10-14T18:26:13.751Z,8.48
2022-10-14T18:28:58.730Z,8.07
2022-10-14T18:31:42.060Z,7.13
2022-10-14T18:34:27.373Z,6.80
2022-10-14T18:37:10.209Z,5.43
2022-10-14T18:39:52.990Z,5.78
2022-10-14T18:42:37.023Z,6.53
2022-10-14T18:45:19.851Z,6.38
2022-10-14T18:48:02.866Z,6.97
2022-10-14T18:50:45.584Z,6.07
2022-10-14T18:53:28.384Z,6.55
2022-10-14T18:56:15.347Z,6.47
2022-10-14T18:59:00.476Z,6.70
2022-10-14T19:01:44.175Z,7.72
2022-10-14T19:04:28.158Z,5.82
2022-10-14T19:07:10.982Z,5.95
2022-10-14T19:09:55.598Z,5.75
2022-10-14T19:12:43.582Z,5.50
2022-10-14T19:15:29.563Z,9.48
2022-10-14T19:18:12.791Z,7.55
2022-10-14T19:20:58.050Z,5.82
2022-10-14T19:23:41.446Z,6.93
2022-10-14T19:26:25.328Z,5.18
2022-10-14T19:29:11.547Z,6.32
2022-10-14T19:31:56.193Z,8.45
2022-10-14T19:34:40.809Z,8.20
2022-10-14T19:37:26.578Z,4.93
2022-10-14T19:40:09.755Z,6.55
2022-10-14T19:42:52.675Z,5.13
2022-10-14T19:45:35.414Z,7.82
2022-10-14T19:48:19.633Z,4.60
2022-10-14T19:51:06.249Z,5.18
2022-10-14T19:53:50.089Z,5.90
2022-10-14T19:56:33.026Z,6.00
2022-10-14T19:59:16.398Z,4.03
2022-10-14T20:01:59.184Z,4.47
2022-10-14T20:04:43.750Z,4.30
2022-10-14T20:07:26.510Z,3.65
2022-10-14T20:10:09.776Z,4.97
2022-10-14T20:12:53.043Z,5.05
2022-10-14T20:15:36.005Z,4.50
2022-10-14T20:18:18.777Z,4.63
2022-10-14T20:21:02.943Z,7.03
2022-10-14T20:23:45.873Z,4.85
2022-10-14T20:26:28.699Z,5.78
2022-10-14T20:29:11.474Z,7.32
2022-10-14T20:31:54.245Z,5.35
2022-10-14T20:34:36.992Z,5.45
2022-10-14T20:37:24.273Z,6.32
2022-10-14T20:40:10.849Z,6.40
2022-10-14T20:42:53.675Z,5.13
2022-10-14T20:45:36.585Z,4.38
2022-10-14T20:48:19.623Z,5.80
2022-10-14T20:51:05.261Z,5.32
2022-10-14T20:53:49.544Z,4.45
2022-10-14T20:56:32.976Z,4.00
2022-10-14T20:59:15.846Z,6.47
2022-10-14T21:01:58.610Z,5.45
2022-10-14T21:04:41.331Z,3.90
2022-10-14T21:07:24.348Z,5.28
2022-10-14T21:10:09.531Z,8.88
2022-10-14T21:12:52.353Z,5.57
2022-10-14T21:15:35.267Z,5.10
2022-10-14T21:18:18.105Z,4.75
2022-10-14T21:21:02.099Z,4.05
2022-10-14T21:23:45.379Z,8.45
2022-10-14T21:26:30.114Z,6.60
2022-10-14T21:29:13.066Z,4.18
2022-10-14T21:31:55.839Z,4.90
2022-10-14T21:34:38.675Z,6.95
2022-10-14T21:37:21.477Z,5.70
2022-10-14T21:40:04.632Z,4.30
2022-10-14T21:42:48.873Z,7.07
2022-10-14T21:45:31.863Z,5.13
2022-10-14T21:48:14.502Z,4.55
2022-10-14T21:51:02.241Z,3.58
2022-10-14T21:53:46.044Z,4.22
2022-10-14T21:56:29.512Z,3.42
2022-10-14T21:59:13.730Z,3.90
2022-10-14T22:01:59.008Z,3.40
2022-10-14T22:04:41.948Z,4.30
2022-10-14T22:07:24.985Z,8.48
2022-10-14T22:10:28.249Z,5.10
2022-10-14T22:13:11.362Z,6.00
2022-10-14T22:15:55.736Z,5.43
2022-10-14T22:18:38.467Z,4.60
2022-10-14T22:21:22.596Z,5.47
2022-10-14T22:24:05.942Z,5.80
2022-10-14T22:26:51.110Z,5.25
2022-10-14T22:29:33.784Z,5.35
2022-10-14T22:32:17.844Z,6.22
2022-10-14T22:35:00.535Z,4.22
2022-10-14T22:37:43.468Z,4.05
2022-10-14T22:40:26.069Z,7.35
2022-10-14T22:43:08.942Z,6.05
2022-10-14T22:45:58.784Z,4.32
2022-10-14T22:48:43.052Z,5.15
2022-10-14T22:54:14.186Z,3.80
2022-10-14T22:56:56.892Z,4.93
2022-10-14T22:59:39.504Z,4.97
2022-10-14T23:02:22.404Z,4.00
2022-10-14T23:05:07.311Z,5.30
2022-10-14T23:07:50.046Z,4.68
2022-10-14T23:10:32.736Z,5.05
2022-10-14T23:13:15.490Z,4.78
2022-10-14T23:15:58.445Z,6.80
2022-10-14T23:21:26.446Z,4.70
2022-10-14T23:24:11.711Z,4.07
2022-10-14T23:26:54.462Z,4.38
2022-10-14T23:29:37.149Z,6.00
2022-10-14T23:32:19.860Z,5.80
2022-10-14T23:35:02.625Z,5.32
2022-10-14T23:37:46.616Z,6.07
2022-10-14T23:40:29.340Z,4.65
2022-10-14T23:43:12.014Z,6.82
2022-10-14T23:45:54.995Z,4.53
2022-10-14T23:48:38.026Z,5.38
2022-10-14T23:51:20.702Z,7.57
2022-10-14T23:54:04.963Z,4.53
2022-10-14T23:56:47.670Z,6.53
2022-10-14T23:59:30.287Z,7.60
